sensor_id;sensor_type;location;lat;lon;timestamp;temperature;humidity
8172;DHT22;4127;47.908;10.850;2024-02-23T00:02:15;6.00;99.90
8172;DHT22;4127;47.908;10.850;2024-02-23T00:04:41;6.00;99.90
8172;DHT22;4127;47.908;10.850;2024-02-23T00:07:08;6.00;99.90
8172;DHT22;4127;47.908;10.850;2024-02-23T00:09:36;6.00;99.90
8172;DHT22;4127;47.908;10.850;2024-02-23T00:12:03;6.00;99.90
8172;DHT22;4127;47.908;10.850;2024-02-23T00:14:30;6.00;99.90
8172;DHT22;4127;47.908;10.850;2024-02-23T00:16:58;6.00;99.90
8172;DHT22;4127;47.908;10.850;2024-02-23T00:19:25;6.00;99.90
8172;DHT22;4127;47.908;10.850;2024-02-23T00:21:52;6.00;99.90
8172;DHT22;4127;47.908;10.850;2024-02-23T00:24:19;6.10;99.90
8172;DHT22;4127;47.908;10.850;2024-02-23T00:26:49;6.10;99.90
8172;DHT22;4127;47.908;10.850;2024-02-23T00:29:18;6.10;99.90
8172;DHT22;4127;47.908;10.850;2024-02-23T00:31:45;6.20;99.90
8172;DHT22;4127;47.908;10.850;2024-02-23T00:34:12;6.10;99.90
8172;DHT22;4127;47.908;10.850;2024-02-23T00:36:41;6.10;99.90
8172;DHT22;4127;47.908;10.850;2024-02-23T00:39:08;6.00;99.90
8172;DHT22;4127;47.908;10.850;2024-02-23T00:41:35;6.00;99.90
8172;DHT22;4127;47.908;10.850;2024-02-23T00:44:03;5.90;99.90
8172;DHT22;4127;47.908;10.850;2024-02-23T00:46:30;5.90;99.90
8172;DHT22;4127;47.908;10.850;2024-02-23T00:48:57;5.80;99.90
8172;DHT22;4127;47.908;10.850;2024-02-23T00:51:24;5.80;99.90
8172;DHT22;4127;47.908;10.850;2024-02-23T00:53:51;5.60;99.90
8172;DHT22;4127;47.908;10.850;2024-02-23T00:56:18;5.60;99.90
8172;DHT22;4127;47.908;10.850;2024-02-23T00:58:48;5.60;99.90
8172;DHT22;4127;47.908;10.850;2024-02-23T01:01:15;5.50;99.90
8172;DHT22;4127;47.908;10.850;2024-02-23T01:03:43;5.50;99.90
8172;DHT22;4127;47.908;10.850;2024-02-23T01:06:10;5.50;99.90
8172;DHT22;4127;47.908;10.850;2024-02-23T01:08:37;5.50;99.90
8172;DHT22;4127;47.908;10.850;2024-02-23T01:11:04;5.50;99.90
8172;DHT22;4127;47.908;10.850;2024-02-23T01:13:31;5.50;99.90
8172;DHT22;4127;47.908;10.850;2024-02-23T01:15:58;5.50;99.90
8172;DHT22;4127;47.908;10.850;2024-02-23T01:18:25;5.50;99.90
8172;DHT22;4127;47.908;10.850;2024-02-23T01:20:52;5.40;99.90
8172;DHT22;4127;47.908;10.850;2024-02-23T01:23:19;5.50;99.90
8172;DHT22;4127;47.908;10.850;2024-02-23T01:25:46;5.50;99.90
8172;DHT22;4127;47.908;10.850;2024-02-23T01:28:13;5.50;99.90
8172;DHT22;4127;47.908;10.850;2024-02-23T01:30:40;5.50;99.90
8172;DHT22;4127;47.908;10.850;2024-02-23T01:33:07;5.50;99.90
8172;DHT22;4127;47.908;10.850;2024-02-23T01:35:35;5.50;99.90
8172;DHT22;4127;47.908;10.850;2024-02-23T01:38:03;5.50;99.90
8172;DHT22;4127;47.908;10.850;2024-02-23T01:40:30;5.60;99.90
8172;DHT22;4127;47.908;10.850;2024-02-23T01:43:03;5.60;99.90
8172;DHT22;4127;47.908;10.850;2024-02-23T01:45:31;5.50;99.90
8172;DHT22;4127;47.908;10.850;2024-02-23T01:47:59;5.60;99.90
8172;DHT22;4127;47.908;10.850;2024-02-23T01:50:27;5.60;99.90
8172;DHT22;4127;47.908;10.850;2024-02-23T01:52:57;5.60;99.90
8172;DHT22;4127;47.908;10.850;2024-02-23T01:55:25;5.60;99.90
8172;DHT22;4127;47.908;10.850;2024-02-23T01:57:53;5.50;99.90
8172;DHT22;4127;47.908;10.850;2024-02-23T02:00:20;5.50;99.90
8172;DHT22;4127;47.908;10.850;2024-02-23T02:02:48;5.50;99.90
8172;DHT22;4127;47.908;10.850;2024-02-23T02:05:15;5.60;99.90
8172;DHT22;4127;47.908;10.850;2024-02-23T02:07:42;5.50;99.90
8172;DHT22;4127;47.908;10.850;2024-02-23T02:10:10;5.50;99.90
8172;DHT22;4127;47.908;10.850;2024-02-23T02:12:37;5.60;99.90
8172;DHT22;4127;47.908;10.850;2024-02-23T02:15:04;5.60;99.90
8172;DHT22;4127;47.908;10.850;2024-02-23T02:17:31;5.60;99.90
8172;DHT22;4127;47.908;10.850;2024-02-23T02:20:04;5.60;99.90
8172;DHT22;4127;47.908;10.850;2024-02-23T02:22:34;5.50;99.90
8172;DHT22;4127;47.908;10.850;2024-02-23T02:25:01;5.50;99.90
8172;DHT22;4127;47.908;10.850;2024-02-23T02:27:28;5.50;99.90
8172;DHT22;4127;47.908;10.850;2024-02-23T02:29:55;5.60;99.90
8172;DHT22;4127;47.908;10.850;2024-02-23T02:32:22;5.60;99.90
8172;DHT22;4127;47.908;10.850;2024-02-23T02:34:50;5.60;99.90
8172;DHT22;4127;47.908;10.850;2024-02-23T02:37:16;5.60;99.90
8172;DHT22;4127;47.908;10.850;2024-02-23T02:39:43;5.60;99.90
8172;DHT22;4127;47.908;10.850;2024-02-23T02:42:10;5.60;99.90
8172;DHT22;4127;47.908;10.850;2024-02-23T02:44:37;5.70;99.90
8172;DHT22;4127;47.908;10.850;2024-02-23T02:47:04;5.60;99.90
8172;DHT22;4127;47.908;10.850;2024-02-23T02:49:31;5.60;99.90
8172;DHT22;4127;47.908;10.850;2024-02-23T02:51:58;5.60;99.90
8172;DHT22;4127;47.908;10.850;2024-02-23T02:54:25;5.60;99.90
8172;DHT22;4127;47.908;10.850;2024-02-23T02:56:52;5.60;99.90
8172;DHT22;4127;47.908;10.850;2024-02-23T02:59:20;5.60;99.90
8172;DHT22;4127;47.908;10.850;2024-02-23T03:01:49;5.60;99.90
8172;DHT22;4127;47.908;10.850;2024-02-23T03:04:16;5.60;99.90
8172;DHT22;4127;47.908;10.850;2024-02-23T03:06:43;5.60;99.90
8172;DHT22;4127;47.908;10.850;2024-02-23T03:09:10;5.60;99.90
8172;DHT22;4127;47.908;10.850;2024-02-23T03:11:37;5.60;99.90
8172;DHT22;4127;47.908;10.850;2024-02-23T03:14:04;5.60;99.90
8172;DHT22;4127;47.908;10.850;2024-02-23T03:16:31;5.60;99.90
8172;DHT22;4127;47.908;10.850;2024-02-23T03:18:58;5.50;99.90
8172;DHT22;4127;47.908;10.850;2024-02-23T03:21:25;5.50;99.90
8172;DHT22;4127;47.908;10.850;2024-02-23T03:23:52;5.50;99.90
8172;DHT22;4127;47.908;10.850;2024-02-23T03:26:19;5.50;99.90
8172;DHT22;4127;47.908;10.850;2024-02-23T03:28:46;5.50;99.90
8172;DHT22;4127;47.908;10.850;2024-02-23T03:31:15;5.40;99.90
8172;DHT22;4127;47.908;10.850;2024-02-23T03:33:42;5.40;99.90
8172;DHT22;4127;47.908;10.850;2024-02-23T03:36:09;5.40;99.90
8172;DHT22;4127;47.908;10.850;2024-02-23T03:38:36;5.30;99.90
8172;DHT22;4127;47.908;10.850;2024-02-23T03:41:03;5.30;99.90
8172;DHT22;4127;47.908;10.850;2024-02-23T03:43:30;5.30;99.90
8172;DHT22;4127;47.908;10.850;2024-02-23T03:46:00;5.20;99.90
8172;DHT22;4127;47.908;10.850;2024-02-23T03:48:27;5.20;99.90
8172;DHT22;4127;47.908;10.850;2024-02-23T03:50:54;5.20;99.90
8172;DHT22;4127;47.908;10.850;2024-02-23T03:53:21;5.10;99.90
8172;DHT22;4127;47.908;10.850;2024-02-23T03:55:49;5.00;99.90
8172;DHT22;4127;47.908;10.850;2024-02-23T03:58:16;5.00;99.90
8172;DHT22;4127;47.908;10.850;2024-02-23T04:00:43;5.00;99.90
8172;DHT22;4127;47.908;10.850;2024-02-23T04:03:10;4.90;99.90
8172;DHT22;4127;47.908;10.850;2024-02-23T04:05:37;4.90;99.90
8172;DHT22;4127;47.908;10.850;2024-02-23T04:08:05;4.80;99.90
8172;DHT22;4127;47.908;10.850;2024-02-23T04:10:32;4.80;99.90
8172;DHT22;4127;47.908;10.850;2024-02-23T04:13:00;4.80;99.90
8172;DHT22;4127;47.908;10.850;2024-02-23T04:15:27;4.70;99.90
8172;DHT22;4127;47.908;10.850;2024-02-23T04:17:54;4.70;99.90
8172;DHT22;4127;47.908;10.850;2024-02-23T04:20:21;4.70;99.90
8172;DHT22;4127;47.908;10.850;2024-02-23T04:22:48;4.70;99.90
8172;DHT22;4127;47.908;10.850;2024-02-23T04:25:15;4.70;99.90
8172;DHT22;4127;47.908;10.850;2024-02-23T04:27:42;4.70;99.90
8172;DHT22;4127;47.908;10.850;2024-02-23T04:30:11;4.60;99.90
8172;DHT22;4127;47.908;10.850;2024-02-23T04:32:38;4.50;99.90
8172;DHT22;4127;47.908;10.850;2024-02-23T04:35:06;4.50;99.90
8172;DHT22;4127;47.908;10.850;2024-02-23T04:37:34;4.50;99.90
8172;DHT22;4127;47.908;10.850;2024-02-23T04:40:03;4.60;99.90
8172;DHT22;4127;47.908;10.850;2024-02-23T04:42:32;4.50;99.90
8172;DHT22;4127;47.908;10.850;2024-02-23T04:44:59;4.50;99.90
8172;DHT22;4127;47.908;10.850;2024-02-23T04:47:26;4.50;99.90
8172;DHT22;4127;47.908;10.850;2024-02-23T04:49:53;4.50;99.90
8172;DHT22;4127;47.908;10.850;2024-02-23T04:52:20;4.40;99.90
8172;DHT22;4127;47.908;10.850;2024-02-23T04:54:47;4.40;99.90
8172;DHT22;4127;47.908;10.850;2024-02-23T04:57:14;4.30;99.90
8172;DHT22;4127;47.908;10.850;2024-02-23T04:59:41;4.30;99.90
8172;DHT22;4127;47.908;10.850;2024-02-23T05:02:08;4.20;99.90
8172;DHT22;4127;47.908;10.850;2024-02-23T05:04:35;4.30;99.90
8172;DHT22;4127;47.908;10.850;2024-02-23T05:07:01;4.20;99.90
8172;DHT22;4127;47.908;10.850;2024-02-23T05:09:28;4.20;99.90
8172;DHT22;4127;47.908;10.850;2024-02-23T05:11:55;4.20;99.90
8172;DHT22;4127;47.908;10.850;2024-02-23T05:14:23;4.20;99.90
8172;DHT22;4127;47.908;10.850;2024-02-23T05:16:50;4.10;99.90
8172;DHT22;4127;47.908;10.850;2024-02-23T05:19:17;4.20;99.90
8172;DHT22;4127;47.908;10.850;2024-02-23T05:21:44;4.10;99.90
8172;DHT22;4127;47.908;10.850;2024-02-23T05:24:11;4.00;99.90
8172;DHT22;4127;47.908;10.850;2024-02-23T05:26:38;4.10;99.90
8172;DHT22;4127;47.908;10.850;2024-02-23T05:29:05;4.10;99.90
8172;DHT22;4127;47.908;10.850;2024-02-23T05:31:47;4.10;99.90
8172;DHT22;4127;47.908;10.850;2024-02-23T05:34:15;4.00;99.90
8172;DHT22;4127;47.908;10.850;2024-02-23T05:36:42;4.10;99.90
8172;DHT22;4127;47.908;10.850;2024-02-23T05:39:09;4.10;99.90
8172;DHT22;4127;47.908;10.850;2024-02-23T05:41:36;4.10;99.90
8172;DHT22;4127;47.908;10.850;2024-02-23T05:44:04;4.10;99.90
8172;DHT22;4127;47.908;10.850;2024-02-23T05:46:33;4.00;99.90
8172;DHT22;4127;47.908;10.850;2024-02-23T05:49:01;4.00;99.90
8172;DHT22;4127;47.908;10.850;2024-02-23T05:51:29;4.00;99.90
8172;DHT22;4127;47.908;10.850;2024-02-23T05:53:56;4.00;99.90
8172;DHT22;4127;47.908;10.850;2024-02-23T05:56:24;4.00;99.90
8172;DHT22;4127;47.908;10.850;2024-02-23T05:58:51;4.00;99.90
8172;DHT22;4127;47.908;10.850;2024-02-23T06:01:19;4.00;99.90
8172;DHT22;4127;47.908;10.850;2024-02-23T06:03:46;3.90;99.90
8172;DHT22;4127;47.908;10.850;2024-02-23T06:06:13;3.90;99.90
8172;DHT22;4127;47.908;10.850;2024-02-23T06:08:41;4.00;99.90
8172;DHT22;4127;47.908;10.850;2024-02-23T06:11:09;4.00;99.90
8172;DHT22;4127;47.908;10.850;2024-02-23T06:13:36;4.00;99.90
8172;DHT22;4127;47.908;10.850;2024-02-23T06:16:05;4.00;99.90
8172;DHT22;4127;47.908;10.850;2024-02-23T06:18:32;4.00;99.90
8172;DHT22;4127;47.908;10.850;2024-02-23T06:20:59;4.00;99.90
8172;DHT22;4127;47.908;10.850;2024-02-23T06:23:26;4.00;99.90
8172;DHT22;4127;47.908;10.850;2024-02-23T06:25:53;4.00;99.90
8172;DHT22;4127;47.908;10.850;2024-02-23T06:28:20;4.00;99.90
8172;DHT22;4127;47.908;10.850;2024-02-23T06:30:46;4.00;99.90
8172;DHT22;4127;47.908;10.850;2024-02-23T06:33:13;4.10;99.90
8172;DHT22;4127;47.908;10.850;2024-02-23T06:35:40;4.10;99.90
8172;DHT22;4127;47.908;10.850;2024-02-23T06:38:07;4.10;99.90
8172;DHT22;4127;47.908;10.850;2024-02-23T06:40:34;4.10;99.90
8172;DHT22;4127;47.908;10.850;2024-02-23T06:43:17;4.20;99.90
8172;DHT22;4127;47.908;10.850;2024-02-23T06:45:49;4.10;99.90
8172;DHT22;4127;47.908;10.850;2024-02-23T06:48:16;4.10;99.90
8172;DHT22;4127;47.908;10.850;2024-02-23T06:50:43;4.00;99.90
8172;DHT22;4127;47.908;10.850;2024-02-23T06:53:11;4.10;99.90
8172;DHT22;4127;47.908;10.850;2024-02-23T06:55:37;4.10;99.90
8172;DHT22;4127;47.908;10.850;2024-02-23T06:58:04;4.20;99.90
8172;DHT22;4127;47.908;10.850;2024-02-23T07:00:33;4.20;99.90
8172;DHT22;4127;47.908;10.850;2024-02-23T07:03:01;4.20;99.90
8172;DHT22;4127;47.908;10.850;2024-02-23T07:05:31;4.20;99.90
8172;DHT22;4127;47.908;10.850;2024-02-23T07:07:58;4.20;99.90
8172;DHT22;4127;47.908;10.850;2024-02-23T07:10:26;4.20;99.90
8172;DHT22;4127;47.908;10.850;2024-02-23T07:12:53;4.20;99.90
8172;DHT22;4127;47.908;10.850;2024-02-23T07:15:20;4.20;99.90
8172;DHT22;4127;47.908;10.850;2024-02-23T07:17:47;4.20;99.90
8172;DHT22;4127;47.908;10.850;2024-02-23T07:20:14;4.20;99.90
8172;DHT22;4127;47.908;10.850;2024-02-23T07:22:47;4.20;99.90
8172;DHT22;4127;47.908;10.850;2024-02-23T07:25:18;4.20;99.90
8172;DHT22;4127;47.908;10.850;2024-02-23T07:27:48;4.20;99.90
8172;DHT22;4127;47.908;10.850;2024-02-23T07:30:15;4.20;99.90
8172;DHT22;4127;47.908;10.850;2024-02-23T07:32:46;4.20;99.90
8172;DHT22;4127;47.908;10.850;2024-02-23T07:35:18;4.20;99.90
8172;DHT22;4127;47.908;10.850;2024-02-23T07:37:46;4.20;99.90
8172;DHT22;4127;47.908;10.850;2024-02-23T07:40:13;4.30;99.90
8172;DHT22;4127;47.908;10.850;2024-02-23T07:42:44;4.30;99.90
8172;DHT22;4127;47.908;10.850;2024-02-23T07:45:12;4.30;99.90
8172;DHT22;4127;47.908;10.850;2024-02-23T07:47:39;4.30;99.90
8172;DHT22;4127;47.908;10.850;2024-02-23T07:50:06;4.30;99.90
8172;DHT22;4127;47.908;10.850;2024-02-23T07:52:33;4.30;99.90
8172;DHT22;4127;47.908;10.850;2024-02-23T07:55:00;4.40;99.90
8172;DHT22;4127;47.908;10.850;2024-02-23T07:57:29;4.40;99.90
8172;DHT22;4127;47.908;10.850;2024-02-23T07:59:58;4.40;99.90
8172;DHT22;4127;47.908;10.850;2024-02-23T08:02:25;4.40;99.90
8172;DHT22;4127;47.908;10.850;2024-02-23T08:04:52;4.50;99.90
8172;DHT22;4127;47.908;10.850;2024-02-23T08:07:19;4.50;99.90
8172;DHT22;4127;47.908;10.850;2024-02-23T08:09:46;4.50;99.90
8172;DHT22;4127;47.908;10.850;2024-02-23T08:12:14;4.40;99.90
8172;DHT22;4127;47.908;10.850;2024-02-23T08:14:43;4.50;99.90
8172;DHT22;4127;47.908;10.850;2024-02-23T08:17:10;4.60;99.90
8172;DHT22;4127;47.908;10.850;2024-02-23T08:19:37;4.70;99.90
8172;DHT22;4127;47.908;10.850;2024-02-23T08:22:04;4.70;99.90
8172;DHT22;4127;47.908;10.850;2024-02-23T08:24:31;4.70;99.90
8172;DHT22;4127;47.908;10.850;2024-02-23T08:26:58;4.70;99.90
8172;DHT22;4127;47.908;10.850;2024-02-23T08:29:26;4.70;99.90
8172;DHT22;4127;47.908;10.850;2024-02-23T08:31:53;4.80;99.90
8172;DHT22;4127;47.908;10.850;2024-02-23T08:34:20;4.80;99.90
8172;DHT22;4127;47.908;10.850;2024-02-23T08:36:47;4.80;99.90
8172;DHT22;4127;47.908;10.850;2024-02-23T08:39:14;4.80;99.90
8172;DHT22;4127;47.908;10.850;2024-02-23T08:41:41;4.80;99.90
8172;DHT22;4127;47.908;10.850;2024-02-23T08:44:08;4.80;99.90
8172;DHT22;4127;47.908;10.850;2024-02-23T08:46:35;4.80;99.90
8172;DHT22;4127;47.908;10.850;2024-02-23T08:49:04;4.90;99.90
8172;DHT22;4127;47.908;10.850;2024-02-23T08:51:31;4.90;99.90
8172;DHT22;4127;47.908;10.850;2024-02-23T08:53:57;4.90;99.90
8172;DHT22;4127;47.908;10.850;2024-02-23T08:56:30;5.00;99.90
8172;DHT22;4127;47.908;10.850;2024-02-23T08:58:58;5.00;99.90
8172;DHT22;4127;47.908;10.850;2024-02-23T09:01:25;5.00;99.90
8172;DHT22;4127;47.908;10.850;2024-02-23T09:03:52;5.10;99.90
8172;DHT22;4127;47.908;10.850;2024-02-23T09:06:19;5.10;99.90
8172;DHT22;4127;47.908;10.850;2024-02-23T09:08:46;5.00;99.90
8172;DHT22;4127;47.908;10.850;2024-02-23T09:11:13;5.00;99.90
8172;DHT22;4127;47.908;10.850;2024-02-23T09:13:42;4.90;99.90
8172;DHT22;4127;47.908;10.850;2024-02-23T09:16:09;4.90;99.90
8172;DHT22;4127;47.908;10.850;2024-02-23T09:18:36;4.90;99.90
8172;DHT22;4127;47.908;10.850;2024-02-23T09:21:03;4.90;99.90
8172;DHT22;4127;47.908;10.850;2024-02-23T09:23:30;5.00;99.90
8172;DHT22;4127;47.908;10.850;2024-02-23T09:25:57;5.00;99.90
8172;DHT22;4127;47.908;10.850;2024-02-23T09:28:24;5.00;99.90
8172;DHT22;4127;47.908;10.850;2024-02-23T09:30:51;5.00;99.90
8172;DHT22;4127;47.908;10.850;2024-02-23T09:33:22;5.10;99.90
8172;DHT22;4127;47.908;10.850;2024-02-23T09:35:49;5.10;99.90
8172;DHT22;4127;47.908;10.850;2024-02-23T09:38:16;5.10;99.90
8172;DHT22;4127;47.908;10.850;2024-02-23T09:40:43;5.10;99.90
8172;DHT22;4127;47.908;10.850;2024-02-23T09:43:11;5.10;99.90
8172;DHT22;4127;47.908;10.850;2024-02-23T09:45:39;5.10;99.90
8172;DHT22;4127;47.908;10.850;2024-02-23T09:48:07;5.00;99.90
8172;DHT22;4127;47.908;10.850;2024-02-23T09:50:35;4.90;99.90
8172;DHT22;4127;47.908;10.850;2024-02-23T09:53:06;4.90;99.90
8172;DHT22;4127;47.908;10.850;2024-02-23T09:55:35;4.90;99.90
8172;DHT22;4127;47.908;10.850;2024-02-23T09:58:03;4.90;99.90
8172;DHT22;4127;47.908;10.850;2024-02-23T10:00:31;4.90;99.90
8172;DHT22;4127;47.908;10.850;2024-02-23T10:02:58;4.90;99.90
8172;DHT22;4127;47.908;10.850;2024-02-23T10:05:30;4.90;99.90
8172;DHT22;4127;47.908;10.850;2024-02-23T10:08:04;4.80;99.90
8172;DHT22;4127;47.908;10.850;2024-02-23T10:10:33;4.80;99.90
8172;DHT22;4127;47.908;10.850;2024-02-23T10:13:01;4.90;99.90
8172;DHT22;4127;47.908;10.850;2024-02-23T10:15:31;5.00;99.90
8172;DHT22;4127;47.908;10.850;2024-02-23T10:17:58;4.90;99.90
8172;DHT22;4127;47.908;10.850;2024-02-23T10:20:26;4.90;99.90
8172;DHT22;4127;47.908;10.850;2024-02-23T10:22:53;5.00;99.90
8172;DHT22;4127;47.908;10.850;2024-02-23T10:25:21;5.00;99.90
8172;DHT22;4127;47.908;10.850;2024-02-23T10:27:48;5.20;99.90
8172;DHT22;4127;47.908;10.850;2024-02-23T10:30:15;5.20;99.90
8172;DHT22;4127;47.908;10.850;2024-02-23T10:32:42;5.20;99.90
8172;DHT22;4127;47.908;10.850;2024-02-23T10:35:15;5.20;99.90
8172;DHT22;4127;47.908;10.850;2024-02-23T10:37:44;5.20;99.90
8172;DHT22;4127;47.908;10.850;2024-02-23T10:40:14;5.10;99.90
8172;DHT22;4127;47.908;10.850;2024-02-23T10:42:44;5.10;99.90
8172;DHT22;4127;47.908;10.850;2024-02-23T10:45:21;4.90;99.90
8172;DHT22;4127;47.908;10.850;2024-02-23T10:47:51;4.90;99.90
8172;DHT22;4127;47.908;10.850;2024-02-23T10:50:19;5.00;99.90
8172;DHT22;4127;47.908;10.850;2024-02-23T10:52:46;4.90;99.90
8172;DHT22;4127;47.908;10.850;2024-02-23T10:55:14;4.90;99.90
8172;DHT22;4127;47.908;10.850;2024-02-23T10:57:41;4.80;99.90
8172;DHT22;4127;47.908;10.850;2024-02-23T11:00:09;4.80;99.90
8172;DHT22;4127;47.908;10.850;2024-02-23T11:02:43;4.90;99.90
8172;DHT22;4127;47.908;10.850;2024-02-23T11:05:10;5.00;99.90
8172;DHT22;4127;47.908;10.850;2024-02-23T11:07:39;5.00;99.90
8172;DHT22;4127;47.908;10.850;2024-02-23T11:10:07;5.10;99.90
8172;DHT22;4127;47.908;10.850;2024-02-23T11:12:35;5.10;99.90
8172;DHT22;4127;47.908;10.850;2024-02-23T11:15:03;5.10;99.90
8172;DHT22;4127;47.908;10.850;2024-02-23T11:17:32;5.10;99.90
8172;DHT22;4127;47.908;10.850;2024-02-23T11:20:03;5.10;99.90
8172;DHT22;4127;47.908;10.850;2024-02-23T11:22:35;5.10;99.90
8172;DHT22;4127;47.908;10.850;2024-02-23T11:25:08;5.10;99.90
8172;DHT22;4127;47.908;10.850;2024-02-23T11:27:38;5.00;99.90
8172;DHT22;4127;47.908;10.850;2024-02-23T11:30:10;4.90;99.90
8172;DHT22;4127;47.908;10.850;2024-02-23T11:32:46;4.80;99.90
8172;DHT22;4127;47.908;10.850;2024-02-23T11:35:15;4.80;99.90
8172;DHT22;4127;47.908;10.850;2024-02-23T11:37:48;4.80;99.90
8172;DHT22;4127;47.908;10.850;2024-02-23T11:40:17;4.90;99.90
8172;DHT22;4127;47.908;10.850;2024-02-23T11:42:44;5.00;99.90
8172;DHT22;4127;47.908;10.850;2024-02-23T11:45:11;5.00;99.90
8172;DHT22;4127;47.908;10.850;2024-02-23T11:47:38;5.10;99.90
8172;DHT22;4127;47.908;10.850;2024-02-23T11:50:09;5.00;99.90
8172;DHT22;4127;47.908;10.850;2024-02-23T11:52:38;5.00;99.90
8172;DHT22;4127;47.908;10.850;2024-02-23T11:55:06;4.90;99.90
8172;DHT22;4127;47.908;10.850;2024-02-23T11:57:33;4.90;99.90
8172;DHT22;4127;47.908;10.850;2024-02-23T12:00:13;4.80;99.90
8172;DHT22;4127;47.908;10.850;2024-02-23T12:02:40;4.90;99.90
8172;DHT22;4127;47.908;10.850;2024-02-23T12:05:08;5.00;99.90
8172;DHT22;4127;47.908;10.850;2024-02-23T12:07:35;5.10;99.90
8172;DHT22;4127;47.908;10.850;2024-02-23T12:10:03;5.10;99.90
8172;DHT22;4127;47.908;10.850;2024-02-23T12:12:30;5.20;99.90
8172;DHT22;4127;47.908;10.850;2024-02-23T12:14:57;5.20;99.90
8172;DHT22;4127;47.908;10.850;2024-02-23T12:17:26;5.20;99.90
8172;DHT22;4127;47.908;10.850;2024-02-23T12:19:59;5.20;99.90
8172;DHT22;4127;47.908;10.850;2024-02-23T12:22:27;5.30;99.90
8172;DHT22;4127;47.908;10.850;2024-02-23T12:24:58;5.30;99.90
8172;DHT22;4127;47.908;10.850;2024-02-23T12:27:25;5.50;99.90
8172;DHT22;4127;47.908;10.850;2024-02-23T12:29:54;5.50;99.90
8172;DHT22;4127;47.908;10.850;2024-02-23T12:32:21;5.50;99.90
8172;DHT22;4127;47.908;10.850;2024-02-23T12:34:49;5.40;99.90
8172;DHT22;4127;47.908;10.850;2024-02-23T12:37:19;5.40;99.90
8172;DHT22;4127;47.908;10.850;2024-02-23T12:39:47;5.30;99.90
8172;DHT22;4127;47.908;10.850;2024-02-23T12:42:13;5.30;99.90
8172;DHT22;4127;47.908;10.850;2024-02-23T12:44:41;5.20;99.90
8172;DHT22;4127;47.908;10.850;2024-02-23T12:47:08;5.20;99.90
8172;DHT22;4127;47.908;10.850;2024-02-23T12:49:35;5.20;99.90
8172;DHT22;4127;47.908;10.850;2024-02-23T12:52:02;5.10;99.90
8172;DHT22;4127;47.908;10.850;2024-02-23T12:54:29;5.10;99.90
8172;DHT22;4127;47.908;10.850;2024-02-23T12:56:56;5.10;99.90
8172;DHT22;4127;47.908;10.850;2024-02-23T12:59:23;5.20;99.90
8172;DHT22;4127;47.908;10.850;2024-02-23T13:01:50;5.20;99.90
8172;DHT22;4127;47.908;10.850;2024-02-23T13:04:19;5.30;99.90
8172;DHT22;4127;47.908;10.850;2024-02-23T13:06:46;5.20;99.90
8172;DHT22;4127;47.908;10.850;2024-02-23T13:09:14;5.20;99.90
8172;DHT22;4127;47.908;10.850;2024-02-23T13:11:41;5.10;99.90
8172;DHT22;4127;47.908;10.850;2024-02-23T13:14:08;5.00;99.90
8172;DHT22;4127;47.908;10.850;2024-02-23T13:16:36;5.00;99.90
8172;DHT22;4127;47.908;10.850;2024-02-23T13:19:03;4.90;99.90
8172;DHT22;4127;47.908;10.850;2024-02-23T13:21:30;4.90;99.90
8172;DHT22;4127;47.908;10.850;2024-02-23T13:23:59;5.00;99.90
8172;DHT22;4127;47.908;10.850;2024-02-23T13:26:26;5.10;99.90
8172;DHT22;4127;47.908;10.850;2024-02-23T13:28:53;5.10;99.90
8172;DHT22;4127;47.908;10.850;2024-02-23T13:31:20;5.10;99.90
8172;DHT22;4127;47.908;10.850;2024-02-23T13:33:47;5.00;99.90
8172;DHT22;4127;47.908;10.850;2024-02-23T13:36:14;5.00;99.90
8172;DHT22;4127;47.908;10.850;2024-02-23T13:38:41;4.90;99.90
8172;DHT22;4127;47.908;10.850;2024-02-23T13:41:09;5.00;99.90
8172;DHT22;4127;47.908;10.850;2024-02-23T13:43:36;5.20;99.90
8172;DHT22;4127;47.908;10.850;2024-02-23T13:46:03;5.20;99.90
8172;DHT22;4127;47.908;10.850;2024-02-23T13:48:31;5.10;99.90
8172;DHT22;4127;47.908;10.850;2024-02-23T13:50:58;5.10;99.90
8172;DHT22;4127;47.908;10.850;2024-02-23T13:53:30;5.20;99.90
8172;DHT22;4127;47.908;10.850;2024-02-23T13:55:58;5.20;99.90
8172;DHT22;4127;47.908;10.850;2024-02-23T13:58:26;5.20;99.90
8172;DHT22;4127;47.908;10.850;2024-02-23T14:00:54;5.20;99.90
8172;DHT22;4127;47.908;10.850;2024-02-23T14:03:21;5.20;99.90
8172;DHT22;4127;47.908;10.850;2024-02-23T14:05:50;5.10;99.90
8172;DHT22;4127;47.908;10.850;2024-02-23T14:08:17;5.10;99.90
8172;DHT22;4127;47.908;10.850;2024-02-23T14:10:44;5.00;99.90
8172;DHT22;4127;47.908;10.850;2024-02-23T14:13:12;5.10;99.90
8172;DHT22;4127;47.908;10.850;2024-02-23T14:15:39;5.10;99.90
8172;DHT22;4127;47.908;10.850;2024-02-23T14:18:06;5.10;99.90
8172;DHT22;4127;47.908;10.850;2024-02-23T14:20:33;5.20;99.90
8172;DHT22;4127;47.908;10.850;2024-02-23T14:23:00;5.20;99.90
8172;DHT22;4127;47.908;10.850;2024-02-23T14:25:27;5.20;99.90
8172;DHT22;4127;47.908;10.850;2024-02-23T14:27:54;5.10;99.90
8172;DHT22;4127;47.908;10.850;2024-02-23T14:30:22;5.10;99.90
8172;DHT22;4127;47.908;10.850;2024-02-23T14:32:49;5.00;99.90
8172;DHT22;4127;47.908;10.850;2024-02-23T14:35:16;5.00;99.90
8172;DHT22;4127;47.908;10.850;2024-02-23T14:37:43;5.00;99.90
8172;DHT22;4127;47.908;10.850;2024-02-23T14:40:11;5.00;99.90
8172;DHT22;4127;47.908;10.850;2024-02-23T14:42:38;5.00;99.90
8172;DHT22;4127;47.908;10.850;2024-02-23T14:45:07;5.00;99.90
8172;DHT22;4127;47.908;10.850;2024-02-23T14:47:35;5.00;99.90
8172;DHT22;4127;47.908;10.850;2024-02-23T14:50:12;4.90;99.90
8172;DHT22;4127;47.908;10.850;2024-02-23T14:52:39;5.00;99.90
8172;DHT22;4127;47.908;10.850;2024-02-23T14:55:06;5.00;99.90
8172;DHT22;4127;47.908;10.850;2024-02-23T14:57:33;5.00;99.90
8172;DHT22;4127;47.908;10.850;2024-02-23T15:00:00;4.90;99.90
8172;DHT22;4127;47.908;10.850;2024-02-23T15:02:27;4.80;99.90
8172;DHT22;4127;47.908;10.850;2024-02-23T15:04:54;4.80;99.90
8172;DHT22;4127;47.908;10.850;2024-02-23T15:07:21;4.80;99.90
8172;DHT22;4127;47.908;10.850;2024-02-23T15:09:48;4.70;99.90
8172;DHT22;4127;47.908;10.850;2024-02-23T15:12:15;4.80;99.90
8172;DHT22;4127;47.908;10.850;2024-02-23T15:14:43;4.80;99.90
8172;DHT22;4127;47.908;10.850;2024-02-23T15:17:10;4.80;99.90
8172;DHT22;4127;47.908;10.850;2024-02-23T15:19:37;4.90;99.90
8172;DHT22;4127;47.908;10.850;2024-02-23T15:22:04;4.90;99.90
8172;DHT22;4127;47.908;10.850;2024-02-23T15:24:32;4.80;99.90
8172;DHT22;4127;47.908;10.850;2024-02-23T15:26:59;4.80;99.90
8172;DHT22;4127;47.908;10.850;2024-02-23T15:29:26;4.80;99.90
8172;DHT22;4127;47.908;10.850;2024-02-23T15:31:53;4.70;99.90
8172;DHT22;4127;47.908;10.850;2024-02-23T15:34:20;4.70;99.90
8172;DHT22;4127;47.908;10.850;2024-02-23T15:36:48;4.60;99.90
8172;DHT22;4127;47.908;10.850;2024-02-23T15:39:15;4.60;99.90
8172;DHT22;4127;47.908;10.850;2024-02-23T15:41:42;4.50;99.90
8172;DHT22;4127;47.908;10.850;2024-02-23T15:44:09;4.40;99.90
8172;DHT22;4127;47.908;10.850;2024-02-23T15:46:36;4.40;99.90
8172;DHT22;4127;47.908;10.850;2024-02-23T15:49:03;4.40;99.90
8172;DHT22;4127;47.908;10.850;2024-02-23T15:51:51;4.40;99.90
8172;DHT22;4127;47.908;10.850;2024-02-23T15:54:26;4.30;99.90
8172;DHT22;4127;47.908;10.850;2024-02-23T15:56:56;4.30;99.90
8172;DHT22;4127;47.908;10.850;2024-02-23T15:59:23;4.30;99.90
8172;DHT22;4127;47.908;10.850;2024-02-23T16:01:50;4.30;99.90
8172;DHT22;4127;47.908;10.850;2024-02-23T16:04:17;4.40;99.90
8172;DHT22;4127;47.908;10.850;2024-02-23T16:06:44;4.40;99.90